This is the latest recevied weather packets stored in our database for station/object KC5TIL-3. If no packets are shown the sender has not sent any weather packets the latest 10 day(s).
| Time | Temp. | Humidity | Pressure | Rain* | Wind** | Luminosity | Snow |
|---|---|---|---|---|---|---|---|
| 1787763584 | 32.22° C | 23% | 1012.8 hPa | 0 mm | 1.79 m/s, 297° | - | - |
| 1787763278 | 32.22° C | 24% | 1012.8 hPa | 0 mm | 0 m/s | - | - |
| 1787762980 | 31.67° C | 25% | 1012.8 hPa | 0 mm | 0 m/s | - | - |
| 1787762681 | 31.67° C | 24% | 1012.8 hPa | 0 mm | 2.68 m/s, 219° | - | - |
| 1787762380 | 31.67° C | 24% | 1012.8 hPa | 0 mm | 2.68 m/s, 224° | - | - |
| 1787762082 | 32.22° C | 23% | 1012.8 hPa | 0 mm | 2.24 m/s, 188° | - | - |
| 1787761784 | 32.22° C | 21% | 1012.8 hPa | 0 mm | 1.34 m/s, 274° | - | - |
| 1787761184 | 32.22° C | 20% | 1012.8 hPa | 0 mm | 2.24 m/s, 208° | - | - |
| 1787760886 | 32.22° C | 20% | 1012.8 hPa | 0 mm | 1.34 m/s, 271° | - | - |
| 1787760580 | 32.22° C | 20% | 1012.8 hPa | 0 mm | 0 m/s | - | - |
| 1787760281 | 32.22° C | 20% | 1012.8 hPa | 0 mm | 1.34 m/s, 213° | - | - |
| 1787759983 | 32.22° C | 20% | 1012.8 hPa | 0 mm | 1.34 m/s, 251° | - | - |
| 1787759682 | 32.22° C | 20% | 1012.8 hPa | 0 mm | 1.79 m/s, 264° | - | - |
| 1787759384 | 32.22° C | 19% | 1012.8 hPa | 0 mm | 1.34 m/s, 268° | - | - |
| 1787759085 | 32.22° C | 19% | 1012.8 hPa | 0 mm | 1.34 m/s, 287° | - | - |
| 1787758784 | 32.22° C | 20% | 1012.8 hPa | 0 mm | 1.34 m/s, 294° | - | - |
| 1787758486 | 32.22° C | 20% | 1012.8 hPa | 0 mm | 1.79 m/s, 285° | - | - |
| 1787758188 | 32.22° C | 20% | 1012.8 hPa | 0 mm | 1.34 m/s, 291° | - | - |
| 1787757886 | 32.22° C | 20% | 1012.8 hPa | 0 mm | 1.79 m/s, 274° | - | - |
| 1787757588 | 32.22° C | 20% | 1012.8 hPa | 0 mm | 1.79 m/s, 298° | - | - |
| 1787757290 | 32.22° C | 19% | 1012.8 hPa | 0 mm | 1.34 m/s, 277° | - | - |
| 1787756989 | 32.22° C | 19% | 1012.8 hPa | 0 mm | 1.79 m/s, 295° | - | - |
| 1787756686 | 32.22° C | 19% | 1012.8 hPa | 0 mm | 1.79 m/s, 284° | - | - |
| 1787756388 | 32.22° C | 18% | 1012.8 hPa | 0 mm | 0 m/s | - | - |
| 1787756086 | 31.67° C | 19% | 1012.8 hPa | 0 mm | 1.34 m/s, 275° | - | - |
* Rain latest hour (hover to see other rain measurements)
** Current wind speed in m/s (hover to see current wind gust speed)